sensor_id;sensor_type;location;lat;lon;timestamp;pressure;altitude;pressure_sealevel;temperature;humidity
68137;BME280;54939;50.826;9.030;2023-07-22T00:00:23;98472.41;;;23.89;41.34
68137;BME280;54939;50.826;9.030;2023-07-22T00:00:54;98469.69;;;23.89;41.42
68137;BME280;54939;50.826;9.030;2023-07-22T00:01:24;98465.06;;;23.89;41.29
68137;BME280;54939;50.826;9.030;2023-07-22T00:01:54;98471.59;;;23.88;41.45
68137;BME280;54939;50.826;9.030;2023-07-22T00:02:24;98472.41;;;23.89;41.30
68137;BME280;54939;50.826;9.030;2023-07-22T00:02:54;98465.06;;;23.89;41.46
68137;BME280;54939;50.826;9.030;2023-07-22T00:03:24;98468.84;;;23.88;41.44
68137;BME280;54939;50.826;9.030;2023-07-22T00:03:55;98477.03;;;23.88;41.60
68137;BME280;54939;50.826;9.030;2023-07-22T00:04:25;98464.22;;;23.89;41.32
68137;BME280;54939;50.826;9.030;2023-07-22T00:04:55;98469.09;;;23.87;41.48
68137;BME280;54939;50.826;9.030;2023-07-22T00:05:26;98468.84;;;23.88;41.20
68137;BME280;54939;50.826;9.030;2023-07-22T00:06:29;98469.09;;;23.87;41.24
68137;BME280;54939;50.826;9.030;2023-07-22T00:06:52;98470.75;;;23.88;41.50
68137;BME280;54939;50.826;9.030;2023-07-22T00:07:22;98468.03;;;23.88;41.48
68137;BME280;54939;50.826;9.030;2023-07-22T00:07:52;98465.31;;;23.88;41.40
68137;BME280;54939;50.826;9.030;2023-07-22T00:08:22;98471.59;;;23.88;41.29
68137;BME280;54939;50.826;9.030;2023-07-22T00:08:53;98465.31;;;23.88;41.38
68137;BME280;54939;50.826;9.030;2023-07-22T00:09:23;98467.19;;;23.87;41.11
68137;BME280;54939;50.826;9.030;2023-07-22T00:09:54;98468.84;;;23.88;41.45
68137;BME280;54939;50.826;9.030;2023-07-22T00:10:24;98464.47;;;23.87;41.32
68137;BME280;54939;50.826;9.030;2023-07-22T00:10:54;98468.03;;;23.88;41.17
68137;BME280;54939;50.826;9.030;2023-07-22T00:11:24;98464.47;;;23.87;41.19
68137;BME280;54939;50.826;9.030;2023-07-22T00:11:55;98459.03;;;23.87;41.59
68137;BME280;54939;50.826;9.030;2023-07-22T00:12:25;98460.91;;;23.87;41.37
68137;BME280;54939;50.826;9.030;2023-07-22T00:12:55;98462.56;;;23.88;41.55
68137;BME280;54939;50.826;9.030;2023-07-22T00:13:25;98469.94;;;23.87;41.35
68137;BME280;54939;50.826;9.030;2023-07-22T00:13:59;98466.38;;;23.87;41.42
68137;BME280;54939;50.826;9.030;2023-07-22T00:14:29;98473.72;;;23.86;41.43
68137;BME280;54939;50.826;9.030;2023-07-22T00:14:59;98475.38;;;23.87;41.53
68137;BME280;54939;50.826;9.030;2023-07-22T00:15:29;98478.09;;;23.87;41.26
68137;BME280;54939;50.826;9.030;2023-07-22T00:15:59;98469.09;;;23.87;41.39
68137;BME280;54939;50.826;9.030;2023-07-22T00:16:30;98471.00;;;23.86;41.40
68137;BME280;54939;50.826;9.030;2023-07-22T00:17:00;98471.00;;;23.86;41.41
68137;BME280;54939;50.826;9.030;2023-07-22T00:17:30;98473.72;;;23.86;41.30
68137;BME280;54939;50.826;9.030;2023-07-22T00:18:00;98472.09;;;23.85;41.28
68137;BME280;54939;50.826;9.030;2023-07-22T00:18:31;98475.88;;;23.84;41.40
68137;BME280;54939;50.826;9.030;2023-07-22T00:19:02;98472.88;;;23.86;41.60
68137;BME280;54939;50.826;9.030;2023-07-22T00:19:32;98476.44;;;23.86;41.31
68137;BME280;54939;50.826;9.030;2023-07-22T00:20:02;98472.09;;;23.85;41.45
68137;BME280;54939;50.826;9.030;2023-07-22T00:20:34;98467.69;;;23.84;41.57
68137;BME280;54939;50.826;9.030;2023-07-22T00:21:04;98470.16;;;23.86;41.21
68137;BME280;54939;50.826;9.030;2023-07-22T00:21:35;98474.81;;;23.85;41.31
68137;BME280;54939;50.826;9.030;2023-07-22T00:22:06;98484.63;;;23.86;41.51
68137;BME280;54939;50.826;9.030;2023-07-22T00:22:39;98469.38;;;23.85;41.43
68137;BME280;54939;50.826;9.030;2023-07-22T00:23:10;98471.00;;;23.86;41.44
68137;BME280;54939;50.826;9.030;2023-07-22T00:23:40;98478.34;;;23.86;41.36
68137;BME280;54939;50.826;9.030;2023-07-22T00:24:10;98473.16;;;23.84;41.40
68137;BME280;54939;50.826;9.030;2023-07-22T00:24:41;98469.38;;;23.85;41.36
68137;BME280;54939;50.826;9.030;2023-07-22T00:25:11;98472.09;;;23.85;41.29
68137;BME280;54939;50.826;9.030;2023-07-22T00:25:42;98468.53;;;23.85;41.23
68137;BME280;54939;50.826;9.030;2023-07-22T00:26:12;98474.81;;;23.85;41.34
68137;BME280;54939;50.826;9.030;2023-07-22T00:26:42;98475.88;;;23.84;41.21
68137;BME280;54939;50.826;9.030;2023-07-22T00:27:12;98464.16;;;23.84;41.16
68137;BME280;54939;50.826;9.030;2023-07-22T00:27:43;98466.63;;;23.85;41.53
68137;BME280;54939;50.826;9.030;2023-07-22T00:28:13;98472.31;;;23.84;41.15
68137;BME280;54939;50.826;9.030;2023-07-22T00:28:43;98468.78;;;23.83;41.22
68137;BME280;54939;50.826;9.030;2023-07-22T00:29:13;98467.94;;;23.83;41.46
68137;BME280;54939;50.826;9.030;2023-07-22T00:29:44;98461.41;;;23.84;41.48
68137;BME280;54939;50.826;9.030;2023-07-22T00:30:14;98466.03;;;23.83;41.60
68137;BME280;54939;50.826;9.030;2023-07-22T00:30:44;98473.16;;;23.84;41.26
68137;BME280;54939;50.826;9.030;2023-07-22T00:31:14;98469.59;;;23.84;41.26
68137;BME280;54939;50.826;9.030;2023-07-22T00:31:44;98468.78;;;23.83;41.23
68137;BME280;54939;50.826;9.030;2023-07-22T00:32:15;98466.03;;;23.83;41.51
68137;BME280;54939;50.826;9.030;2023-07-22T00:32:45;98475.28;;;23.82;41.46
68137;BME280;54939;50.826;9.030;2023-07-22T00:33:15;98467.13;;;23.82;41.29
68137;BME280;54939;50.826;9.030;2023-07-22T00:33:45;98464.38;;;23.82;41.41
68137;BME280;54939;50.826;9.030;2023-07-22T00:34:16;98467.94;;;23.83;41.30
68137;BME280;54939;50.826;9.030;2023-07-22T00:34:46;98463.56;;;23.82;41.30
68137;BME280;54939;50.826;9.030;2023-07-22T00:35:16;98472.56;;;23.82;41.46
68137;BME280;54939;50.826;9.030;2023-07-22T00:35:47;98469.84;;;23.82;41.25
68137;BME280;54939;50.826;9.030;2023-07-22T00:36:18;98459.75;;;23.83;41.40
68137;BME280;54939;50.826;9.030;2023-07-22T00:36:48;98468.78;;;23.83;41.27
68137;BME280;54939;50.826;9.030;2023-07-22T00:37:18;98466.03;;;23.83;41.35
68137;BME280;54939;50.826;9.030;2023-07-22T00:37:48;98468.78;;;23.83;41.42
68137;BME280;54939;50.826;9.030;2023-07-22T00:38:18;98468.78;;;23.83;41.29
68137;BME280;54939;50.826;9.030;2023-07-22T00:38:49;98469.84;;;23.82;41.28
68137;BME280;54939;50.826;9.030;2023-07-22T00:39:19;98460.84;;;23.82;41.38
68137;BME280;54939;50.826;9.030;2023-07-22T00:39:50;98463.56;;;23.82;41.45
68137;BME280;54939;50.826;9.030;2023-07-22T00:40:20;98468.19;;;23.81;41.28
68137;BME280;54939;50.826;9.030;2023-07-22T00:40:50;98467.34;;;23.81;41.31
68137;BME280;54939;50.826;9.030;2023-07-22T00:41:21;98467.34;;;23.81;41.33
68137;BME280;54939;50.826;9.030;2023-07-22T00:41:51;98464.63;;;23.81;41.32
68137;BME280;54939;50.826;9.030;2023-07-22T00:42:22;98461.91;;;23.81;41.49
68137;BME280;54939;50.826;9.030;2023-07-22T00:42:52;98465.22;;;23.83;41.18
68137;BME280;54939;50.826;9.030;2023-07-22T00:43:22;98466.28;;;23.82;41.15
68137;BME280;54939;50.826;9.030;2023-07-22T00:43:52;98461.91;;;23.81;41.06
68137;BME280;54939;50.826;9.030;2023-07-22T00:44:22;98467.34;;;23.81;41.26
68137;BME280;54939;50.826;9.030;2023-07-22T00:44:52;98468.19;;;23.81;41.43
68137;BME280;54939;50.826;9.030;2023-07-22T00:45:23;98464.63;;;23.81;41.47
68137;BME280;54939;50.826;9.030;2023-07-22T00:45:53;98463.78;;;23.80;41.36
68137;BME280;54939;50.826;9.030;2023-07-22T00:46:23;98464.63;;;23.81;41.45
68137;BME280;54939;50.826;9.030;2023-07-22T00:46:53;98466.53;;;23.80;41.37
68137;BME280;54939;50.826;9.030;2023-07-22T00:47:25;98467.34;;;23.81;41.41
68137;BME280;54939;50.826;9.030;2023-07-22T00:47:55;98461.91;;;23.81;41.38
68137;BME280;54939;50.826;9.030;2023-07-22T00:48:25;98468.41;;;23.80;41.37
68137;BME280;54939;50.826;9.030;2023-07-22T00:48:57;98463.78;;;23.80;41.50
68137;BME280;54939;50.826;9.030;2023-07-22T00:49:28;98463.78;;;23.80;41.35
68137;BME280;54939;50.826;9.030;2023-07-22T00:49:59;98461.91;;;23.81;41.28
68137;BME280;54939;50.826;9.030;2023-07-22T00:50:30;98462.97;;;23.80;41.33
68137;BME280;54939;50.826;9.030;2023-07-22T00:51:01;98462.13;;;23.79;41.27
68137;BME280;54939;50.826;9.030;2023-07-22T00:51:31;98462.97;;;23.80;41.25
68137;BME280;54939;50.826;9.030;2023-07-22T00:52:02;98463.25;;;23.78;41.41
68137;BME280;54939;50.826;9.030;2023-07-22T00:52:33;98468.41;;;23.80;41.39
68137;BME280;54939;50.826;9.030;2023-07-22T00:53:03;98462.97;;;23.80;41.39
68137;BME280;54939;50.826;9.030;2023-07-22T00:53:33;98463.78;;;23.80;41.38
68137;BME280;54939;50.826;9.030;2023-07-22T00:54:04;98467.59;;;23.79;41.34
68137;BME280;54939;50.826;9.030;2023-07-22T00:54:35;98460.50;;;23.78;41.37
68137;BME280;54939;50.826;9.030;2023-07-22T00:55:05;98462.13;;;23.79;41.37
68137;BME280;54939;50.826;9.030;2023-07-22T00:55:35;98462.41;;;23.78;41.54
68137;BME280;54939;50.826;9.030;2023-07-22T00:56:08;98459.69;;;23.78;41.32
68137;BME280;54939;50.826;9.030;2023-07-22T00:56:39;98461.56;;;23.77;41.37
68137;BME280;54939;50.826;9.030;2023-07-22T00:57:10;98466.75;;;23.79;41.52
68137;BME280;54939;50.826;9.030;2023-07-22T00:57:41;98460.50;;;23.78;41.16
68137;BME280;54939;50.826;9.030;2023-07-22T00:58:12;98458.84;;;23.77;41.13
68137;BME280;54939;50.826;9.030;2023-07-22T00:58:42;98457.78;;;23.78;41.38
68137;BME280;54939;50.826;9.030;2023-07-22T00:59:12;98463.25;;;23.78;41.25
68137;BME280;54939;50.826;9.030;2023-07-22T00:59:42;98462.41;;;23.78;41.29
68137;BME280;54939;50.826;9.030;2023-07-22T01:00:13;98456.13;;;23.77;41.38
68137;BME280;54939;50.826;9.030;2023-07-22T01:00:45;98461.56;;;23.77;41.13
68137;BME280;54939;50.826;9.030;2023-07-22T01:01:15;98468.69;;;23.78;41.21
68137;BME280;54939;50.826;9.030;2023-07-22T01:01:46;98459.69;;;23.78;41.20
68137;BME280;54939;50.826;9.030;2023-07-22T01:02:17;98462.13;;;23.79;41.29
68137;BME280;54939;50.826;9.030;2023-07-22T01:02:48;98464.31;;;23.77;41.40
68137;BME280;54939;50.826;9.030;2023-07-22T01:03:19;98451.75;;;23.76;41.25
68137;BME280;54939;50.826;9.030;2023-07-22T01:03:49;98459.69;;;23.78;41.37
68137;BME280;54939;50.826;9.030;2023-07-22T01:04:20;98459.69;;;23.78;41.17
68137;BME280;54939;50.826;9.030;2023-07-22T01:04:52;98462.13;;;23.79;41.21
68137;BME280;54939;50.826;9.030;2023-07-22T01:05:22;98464.31;;;23.77;41.36
68137;BME280;54939;50.826;9.030;2023-07-22T01:05:52;98461.56;;;23.77;41.48
68137;BME280;54939;50.826;9.030;2023-07-22T01:06:23;98464.31;;;23.77;41.29
68137;BME280;54939;50.826;9.030;2023-07-22T01:06:54;98462.66;;;23.76;41.44
68137;BME280;54939;50.826;9.030;2023-07-22T01:07:25;98461.81;;;23.76;41.34
68137;BME280;54939;50.826;9.030;2023-07-22T01:07:55;98460.75;;;23.77;41.49
68137;BME280;54939;50.826;9.030;2023-07-22T01:08:26;98463.72;;;23.75;41.40
68137;BME280;54939;50.826;9.030;2023-07-22T01:08:56;98462.66;;;23.76;41.33
68137;BME280;54939;50.826;9.030;2023-07-22T01:09:30;98464.53;;;23.76;41.37
68137;BME280;54939;50.826;9.030;2023-07-22T01:10:03;98459.91;;;23.76;41.58
68137;BME280;54939;50.826;9.030;2023-07-22T01:10:35;98467.25;;;23.76;41.50
68137;BME280;54939;50.826;9.030;2023-07-22T01:11:05;98468.09;;;23.76;41.34
68137;BME280;54939;50.826;9.030;2023-07-22T01:11:36;98470.00;;;23.76;41.19
68137;BME280;54939;50.826;9.030;2023-07-22T01:12:06;98466.44;;;23.75;41.46
68137;BME280;54939;50.826;9.030;2023-07-22T01:12:37;98468.09;;;23.76;41.14
68137;BME280;54939;50.826;9.030;2023-07-22T01:13:08;98460.97;;;23.75;41.43
68137;BME280;54939;50.826;9.030;2023-07-22T01:13:38;98466.44;;;23.75;41.29
68137;BME280;54939;50.826;9.030;2023-07-22T01:14:09;98475.44;;;23.76;41.42
68137;BME280;54939;50.826;9.030;2023-07-22T01:14:40;98468.09;;;23.76;41.29
68137;BME280;54939;50.826;9.030;2023-07-22T01:15:10;98459.31;;;23.74;41.14
68137;BME280;54939;50.826;9.030;2023-07-22T01:15:41;98461.81;;;23.76;41.17
68137;BME280;54939;50.826;9.030;2023-07-22T01:16:11;98464.78;;;23.74;41.43
68137;BME280;54939;50.826;9.030;2023-07-22T01:16:42;98465.59;;;23.75;41.44
68137;BME280;54939;50.826;9.030;2023-07-22T01:17:12;98462.06;;;23.74;41.27
68137;BME280;54939;50.826;9.030;2023-07-22T01:17:43;98467.50;;;23.74;41.28
68137;BME280;54939;50.826;9.030;2023-07-22T01:18:14;98462.88;;;23.75;41.53
68137;BME280;54939;50.826;9.030;2023-07-22T01:18:44;98466.66;;;23.74;41.22
68137;BME280;54939;50.826;9.030;2023-07-22T01:19:14;98462.88;;;23.75;41.15
68137;BME280;54939;50.826;9.030;2023-07-22T01:19:44;98464.78;;;23.74;41.14
68137;BME280;54939;50.826;9.030;2023-07-22T01:20:15;98459.31;;;23.74;41.31
68137;BME280;54939;50.826;9.030;2023-07-22T01:20:46;98462.88;;;23.75;41.31
68137;BME280;54939;50.826;9.030;2023-07-22T01:21:16;98460.16;;;23.75;41.02
68137;BME280;54939;50.826;9.030;2023-07-22T01:21:48;98457.66;;;23.73;41.31
68137;BME280;54939;50.826;9.030;2023-07-22T01:22:19;98461.22;;;23.74;41.30
68137;BME280;54939;50.826;9.030;2023-07-22T01:22:54;98458.72;;;23.72;41.10
68137;BME280;54939;50.826;9.030;2023-07-22T01:23:24;98455.78;;;23.74;41.17
68137;BME280;54939;50.826;9.030;2023-07-22T01:23:54;98461.22;;;23.74;41.40
68137;BME280;54939;50.826;9.030;2023-07-22T01:24:25;98463.13;;;23.73;41.30
68137;BME280;54939;50.826;9.030;2023-07-22T01:24:55;98460.41;;;23.73;41.13
68137;BME280;54939;50.826;9.030;2023-07-22T01:25:25;98463.94;;;23.74;41.31
68137;BME280;54939;50.826;9.030;2023-07-22T01:25:56;98462.28;;;23.73;41.33
68137;BME280;54939;50.826;9.030;2023-07-22T01:26:26;98460.41;;;23.73;41.14
68137;BME280;54939;50.826;9.030;2023-07-22T01:26:56;98462.06;;;23.74;41.37
68137;BME280;54939;50.826;9.030;2023-07-22T01:27:26;98466.91;;;23.72;41.20
68137;BME280;54939;50.826;9.030;2023-07-22T01:27:56;98461.22;;;23.74;41.40
68137;BME280;54939;50.826;9.030;2023-07-22T01:28:27;98460.41;;;23.73;41.24
68137;BME280;54939;50.826;9.030;2023-07-22T01:29:04;98465.00;;;23.73;41.29
68137;BME280;54939;50.826;9.030;2023-07-22T01:29:34;98460.41;;;23.73;41.24
68137;BME280;54939;50.826;9.030;2023-07-22T01:30:05;98456.00;;;23.72;41.14
68137;BME280;54939;50.826;9.030;2023-07-22T01:30:36;98458.72;;;23.72;41.48
68137;BME280;54939;50.826;9.030;2023-07-22T01:31:07;98462.28;;;23.73;41.45
68137;BME280;54939;50.826;9.030;2023-07-22T01:31:37;98456.00;;;23.72;41.33
68137;BME280;54939;50.826;9.030;2023-07-22T01:32:07;98452.47;;;23.72;41.22
68137;BME280;54939;50.826;9.030;2023-07-22T01:32:37;98457.94;;;23.72;41.28
68137;BME280;54939;50.826;9.030;2023-07-22T01:33:08;98454.38;;;23.71;41.29
68137;BME280;54939;50.826;9.030;2023-07-22T01:33:38;98456.28;;;23.71;41.42
68137;BME280;54939;50.826;9.030;2023-07-22T01:34:09;98458.19;;;23.70;41.37
68137;BME280;54939;50.826;9.030;2023-07-22T01:34:39;98452.72;;;23.70;41.34
68137;BME280;54939;50.826;9.030;2023-07-22T01:35:09;98453.56;;;23.71;41.40
68137;BME280;54939;50.826;9.030;2023-07-22T01:35:40;98463.63;;;23.70;41.53
68137;BME280;54939;50.826;9.030;2023-07-22T01:36:10;98457.34;;;23.70;41.40
68137;BME280;54939;50.826;9.030;2023-07-22T01:36:40;98453.56;;;23.71;41.09
68137;BME280;54939;50.826;9.030;2023-07-22T01:37:11;98459.25;;;23.69;41.22
68137;BME280;54939;50.826;9.030;2023-07-22T01:37:41;98461.97;;;23.69;41.25
68137;BME280;54939;50.826;9.030;2023-07-22T01:38:11;98455.44;;;23.70;41.54
68137;BME280;54939;50.826;9.030;2023-07-22T01:38:41;98454.63;;;23.70;41.31
68137;BME280;54939;50.826;9.030;2023-07-22T01:39:11;98447.28;;;23.70;41.15
68137;BME280;54939;50.826;9.030;2023-07-22T01:39:42;98463.63;;;23.70;41.08
68137;BME280;54939;50.826;9.030;2023-07-22T01:40:13;98456.50;;;23.69;41.09
68137;BME280;54939;50.826;9.030;2023-07-22T01:40:43;98459.25;;;23.69;41.23
68137;BME280;54939;50.826;9.030;2023-07-22T01:41:14;98457.34;;;23.70;41.12
68137;BME280;54939;50.826;9.030;2023-07-22T01:41:44;98457.59;;;23.68;41.21
68137;BME280;54939;50.826;9.030;2023-07-22T01:42:14;98458.19;;;23.70;41.21
68137;BME280;54939;50.826;9.030;2023-07-22T01:42:44;98460.91;;;23.70;41.41
68137;BME280;54939;50.826;9.030;2023-07-22T01:43:14;98464.69;;;23.69;41.40
68137;BME280;54939;50.826;9.030;2023-07-22T01:43:44;98460.06;;;23.70;41.11
68137;BME280;54939;50.826;9.030;2023-07-22T01:44:15;98460.06;;;23.70;41.14
68137;BME280;54939;50.826;9.030;2023-07-22T01:44:45;98461.13;;;23.69;41.17
68137;BME280;54939;50.826;9.030;2023-07-22T01:45:15;98455.69;;;23.69;41.42
68137;BME280;54939;50.826;9.030;2023-07-22T01:45:45;98458.41;;;23.69;41.27
68137;BME280;54939;50.826;9.030;2023-07-22T01:46:15;98465.53;;;23.70;41.29
68137;BME280;54939;50.826;9.030;2023-07-22T01:46:46;98458.41;;;23.69;41.07
68137;BME280;54939;50.826;9.030;2023-07-22T01:47:16;98454.84;;;23.68;41.14
68137;BME280;54939;50.826;9.030;2023-07-22T01:47:47;98458.41;;;23.69;41.23
68137;BME280;54939;50.826;9.030;2023-07-22T01:48:17;98462.44;;;23.66;41.37
68137;BME280;54939;50.826;9.030;2023-07-22T01:48:47;98458.66;;;23.67;41.19
68137;BME280;54939;50.826;9.030;2023-07-22T01:49:17;98458.66;;;23.67;41.11
68137;BME280;54939;50.826;9.030;2023-07-22T01:49:47;98456.75;;;23.68;41.01
68137;BME280;54939;50.826;9.030;2023-07-22T01:50:17;98460.31;;;23.68;41.14
68137;BME280;54939;50.826;9.030;2023-07-22T01:50:48;98457.81;;;23.67;41.21
68137;BME280;54939;50.826;9.030;2023-07-22T01:51:18;98463.03;;;23.68;41.13
68137;BME280;54939;50.826;9.030;2023-07-22T01:51:49;98457.81;;;23.67;41.15
68137;BME280;54939;50.826;9.030;2023-07-22T01:52:19;98460.31;;;23.68;41.33
68137;BME280;54939;50.826;9.030;2023-07-22T01:52:49;98456.75;;;23.68;41.18
68137;BME280;54939;50.826;9.030;2023-07-22T01:53:20;98450.16;;;23.64;41.07
68137;BME280;54939;50.826;9.030;2023-07-22T01:53:50;98460.53;;;23.67;41.14
68137;BME280;54939;50.826;9.030;2023-07-22T01:54:21;98462.44;;;23.66;41.14
68137;BME280;54939;50.826;9.030;2023-07-22T01:54:51;98461.38;;;23.67;41.34
68137;BME280;54939;50.826;9.030;2023-07-22T01:55:21;98464.09;;;23.67;41.31
68137;BME280;54939;50.826;9.030;2023-07-22T01:55:51;98465.16;;;23.66;41.22
68137;BME280;54939;50.826;9.030;2023-07-22T01:56:21;98461.38;;;23.67;41.40
68137;BME280;54939;50.826;9.030;2023-07-22T01:56:51;98459.72;;;23.66;41.31
68137;BME280;54939;50.826;9.030;2023-07-22T01:57:22;98461.59;;;23.66;41.30
68137;BME280;54939;50.826;9.030;2023-07-22T01:57:52;98462.44;;;23.66;41.22
68137;BME280;54939;50.826;9.030;2023-07-22T01:58:22;98463.50;;;23.65;41.22
68137;BME280;54939;50.826;9.030;2023-07-22T01:58:52;98459.97;;;23.65;41.39
68137;BME280;54939;50.826;9.030;2023-07-22T01:59:22;98460.78;;;23.65;41.13
68137;BME280;54939;50.826;9.030;2023-07-22T01:59:52;98458.06;;;23.65;41.45
68137;BME280;54939;50.826;9.030;2023-07-22T02:00:22;98461.59;;;23.66;41.36
68137;BME280;54939;50.826;9.030;2023-07-22T02:00:53;98456.44;;;23.64;41.36
68137;BME280;54939;50.826;9.030;2023-07-22T02:01:23;98462.72;;;23.65;41.00
68137;BME280;54939;50.826;9.030;2023-07-22T02:01:54;98464.34;;;23.66;41.04
68137;BME280;54939;50.826;9.030;2023-07-22T02:02:24;98460.78;;;23.65;41.20
68137;BME280;54939;50.826;9.030;2023-07-22T02:02:55;98458.06;;;23.65;41.19
68137;BME280;54939;50.826;9.030;2023-07-22T02:03:25;98466.22;;;23.65;41.22
68137;BME280;54939;50.826;9.030;2023-07-22T02:03:55;98456.44;;;23.64;41.36
68137;BME280;54939;50.826;9.030;2023-07-22T02:04:25;98457.25;;;23.65;41.17
68137;BME280;54939;50.826;9.030;2023-07-22T02:04:56;98459.97;;;23.65;41.05
68137;BME280;54939;50.826;9.030;2023-07-22T02:05:26;98463.50;;;23.65;41.30
68137;BME280;54939;50.826;9.030;2023-07-22T02:06:02;98462.72;;;23.65;41.13
68137;BME280;54939;50.826;9.030;2023-07-22T02:06:33;98461.03;;;23.64;41.23
68137;BME280;54939;50.826;9.030;2023-07-22T02:07:04;98459.16;;;23.64;41.23
68137;BME280;54939;50.826;9.030;2023-07-22T02:07:35;98459.16;;;23.64;41.41
68137;BME280;54939;50.826;9.030;2023-07-22T02:08:05;98465.66;;;23.63;41.47
68137;BME280;54939;50.826;9.030;2023-07-22T02:08:35;98461.03;;;23.64;41.35
68137;BME280;54939;50.826;9.030;2023-07-22T02:09:06;98462.94;;;23.63;41.28
68137;BME280;54939;50.826;9.030;2023-07-22T02:09:38;98469.22;;;23.64;41.19
68137;BME280;54939;50.826;9.030;2023-07-22T02:10:08;98464.59;;;23.64;41.19
68137;BME280;54939;50.826;9.030;2023-07-22T02:10:39;98457.50;;;23.63;41.14
68137;BME280;54939;50.826;9.030;2023-07-22T02:11:11;98466.50;;;23.64;41.18
68137;BME280;54939;50.826;9.030;2023-07-22T02:11:41;98463.78;;;23.64;41.22
68137;BME280;54939;50.826;9.030;2023-07-22T02:12:12;98462.13;;;23.63;41.27
68137;BME280;54939;50.826;9.030;2023-07-22T02:12:42;98462.94;;;23.63;41.36
68137;BME280;54939;50.826;9.030;2023-07-22T02:13:12;98464.00;;;23.62;41.37
68137;BME280;54939;50.826;9.030;2023-07-22T02:13:42;98469.47;;;23.62;41.36
68137;BME280;54939;50.826;9.030;2023-07-22T02:14:12;98466.75;;;23.62;41.39
68137;BME280;54939;50.826;9.030;2023-07-22T02:14:42;98473.00;;;23.63;41.33
68137;BME280;54939;50.826;9.030;2023-07-22T02:15:13;98467.56;;;23.63;41.08
68137;BME280;54939;50.826;9.030;2023-07-22T02:15:43;98468.63;;;23.62;41.30
68137;BME280;54939;50.826;9.030;2023-07-22T02:16:14;98466.75;;;23.62;41.24
68137;BME280;54939;50.826;9.030;2023-07-22T02:16:44;98470.28;;;23.63;41.36
68137;BME280;54939;50.826;9.030;2023-07-22T02:17:14;98466.75;;;23.62;41.06
68137;BME280;54939;50.826;9.030;2023-07-22T02:17:44;98472.19;;;23.62;41.33
68137;BME280;54939;50.826;9.030;2023-07-22T02:18:14;98464.00;;;23.62;41.22
68137;BME280;54939;50.826;9.030;2023-07-22T02:18:44;98468.63;;;23.62;41.30
68137;BME280;54939;50.826;9.030;2023-07-22T02:19:15;98467.56;;;23.63;41.07
68137;BME280;54939;50.826;9.030;2023-07-22T02:19:46;98475.16;;;23.61;41.24
68137;BME280;54939;50.826;9.030;2023-07-22T02:20:16;98465.91;;;23.62;41.32
68137;BME280;54939;50.826;9.030;2023-07-22T02:20:47;98467.81;;;23.61;41.32
68137;BME280;54939;50.826;9.030;2023-07-22T02:21:17;98469.69;;;23.61;41.25
68137;BME280;54939;50.826;9.030;2023-07-22T02:21:47;98471.34;;;23.62;41.00
68137;BME280;54939;50.826;9.030;2023-07-22T02:22:18;98471.59;;;23.60;41.22
68137;BME280;54939;50.826;9.030;2023-07-22T02:22:48;98465.06;;;23.61;41.30
68137;BME280;54939;50.826;9.030;2023-07-22T02:23:18;98466.97;;;23.61;41.12
68137;BME280;54939;50.826;9.030;2023-07-22T02:23:48;98470.53;;;23.61;41.21
68137;BME280;54939;50.826;9.030;2023-07-22T02:24:19;98468.88;;;23.60;41.17
68137;BME280;54939;50.826;9.030;2023-07-22T02:24:49;98466.97;;;23.61;41.28
68137;BME280;54939;50.826;9.030;2023-07-22T02:25:19;98468.88;;;23.60;40.96
68137;BME280;54939;50.826;9.030;2023-07-22T02:25:52;98466.16;;;23.60;41.18
68137;BME280;54939;50.826;9.030;2023-07-22T02:26:23;98468.88;;;23.60;41.21
68137;BME280;54939;50.826;9.030;2023-07-22T02:26:53;98468.88;;;23.60;41.31
68137;BME280;54939;50.826;9.030;2023-07-22T02:27:24;98466.38;;;23.59;41.11
68137;BME280;54939;50.826;9.030;2023-07-22T02:27:54;98468.03;;;23.60;40.99
68137;BME280;54939;50.826;9.030;2023-07-22T02:28:24;98477.88;;;23.61;41.35
68137;BME280;54939;50.826;9.030;2023-07-22T02:28:54;98464.47;;;23.59;41.19
68137;BME280;54939;50.826;9.030;2023-07-22T02:29:25;98472.66;;;23.59;41.19
68137;BME280;54939;50.826;9.030;2023-07-22T02:29:55;98469.09;;;23.59;41.21
68137;BME280;54939;50.826;9.030;2023-07-22T02:30:25;98469.94;;;23.59;41.17
68137;BME280;54939;50.826;9.030;2023-07-22T02:30:55;98469.94;;;23.59;41.36
68137;BME280;54939;50.826;9.030;2023-07-22T02:31:25;98477.03;;;23.60;40.89
68137;BME280;54939;50.826;9.030;2023-07-22T02:31:56;98471.00;;;23.58;41.20
68137;BME280;54939;50.826;9.030;2023-07-22T02:32:26;98470.75;;;23.60;41.31
68137;BME280;54939;50.826;9.030;2023-07-22T02:32:56;98476.44;;;23.58;41.08
68137;BME280;54939;50.826;9.030;2023-07-22T02:33:26;98471.81;;;23.59;41.26
68137;BME280;54939;50.826;9.030;2023-07-22T02:33:56;98474.56;;;23.59;41.12
68137;BME280;54939;50.826;9.030;2023-07-22T02:34:26;98471.00;;;23.58;41.23
68137;BME280;54939;50.826;9.030;2023-07-22T02:34:56;98467.22;;;23.59;41.29
68137;BME280;54939;50.826;9.030;2023-07-22T02:35:27;98472.94;;;23.58;41.45
68137;BME280;54939;50.826;9.030;2023-07-22T02:35:57;98475.66;;;23.58;41.05
68137;BME280;54939;50.826;9.030;2023-07-22T02:36:27;98474.00;;;23.57;41.02
68137;BME280;54939;50.826;9.030;2023-07-22T02:36:57;98478.38;;;23.58;41.24
68137;BME280;54939;50.826;9.030;2023-07-22T02:37:27;98467.47;;;23.58;41.18
68137;BME280;54939;50.826;9.030;2023-07-22T02:37:57;98470.19;;;23.58;41.16
68137;BME280;54939;50.826;9.030;2023-07-22T02:38:28;98472.09;;;23.57;41.25
68137;BME280;54939;50.826;9.030;2023-07-22T02:38:58;98474.00;;;23.57;41.13
68137;BME280;54939;50.826;9.030;2023-07-22T02:39:28;98472.09;;;23.57;41.10
68137;BME280;54939;50.826;9.030;2023-07-22T02:39:58;98467.72;;;23.56;40.95
68137;BME280;54939;50.826;9.030;2023-07-22T02:40:28;98469.38;;;23.57;41.26
68137;BME280;54939;50.826;9.030;2023-07-22T02:41:02;98472.09;;;23.57;41.14
68137;BME280;54939;50.826;9.030;2023-07-22T02:41:33;98475.88;;;23.56;41.25
68137;BME280;54939;50.826;9.030;2023-07-22T02:42:03;98471.28;;;23.57;41.11